METAR Data
IDs: Format: Raw Decoded Include TAF

Data at: 1815 UTC 03 Jul 2020

METAR for:KAXV (Wapakoneta/Armstrong, OH, US)
Text:KAXV 031815Z AUTO 32003KT 10SM SCT065 31/16 A3003 RMK AO2
Temperature: 31.0°C ( 88°F)
Dewpoint: 16.0°C ( 61°F) [RH = 40%]
Pressure (altimeter):30.03 inches Hg (1017.0 mb)
Winds:from the NW (320 degrees) at 3 MPH (3 knots; 1.5 m/s)
Visibility:10 or more sm (16+ km)
Ceiling:at least 12,000 feet AGL
Clouds: scattered clouds at 6500 feet AGL
QC Flag:automated observation with no human augmentation